sensor_id;sensor_type;location;lat;lon;timestamp;temperature;humidity
21169;DHT22;10742;51.816;8.662;2023-04-01T00:01:41;14.40;95.00
21169;DHT22;10742;51.816;8.662;2023-04-01T00:05:02;14.40;95.10
21169;DHT22;10742;51.816;8.662;2023-04-01T00:08:25;14.40;95.10
21169;DHT22;10742;51.816;8.662;2023-04-01T00:11:46;14.40;95.10
21169;DHT22;10742;51.816;8.662;2023-04-01T00:15:09;14.40;95.10
21169;DHT22;10742;51.816;8.662;2023-04-01T00:18:31;14.40;95.10
21169;DHT22;10742;51.816;8.662;2023-04-01T00:21:52;14.40;95.00
21169;DHT22;10742;51.816;8.662;2023-04-01T00:25:13;14.40;95.00
21169;DHT22;10742;51.816;8.662;2023-04-01T00:28:35;14.30;95.00
21169;DHT22;10742;51.816;8.662;2023-04-01T00:31:57;14.40;95.10
21169;DHT22;10742;51.816;8.662;2023-04-01T00:35:18;14.30;95.10
21169;DHT22;10742;51.816;8.662;2023-04-01T00:38:40;14.30;95.00
21169;DHT22;10742;51.816;8.662;2023-04-01T00:42:03;14.30;95.00
21169;DHT22;10742;51.816;8.662;2023-04-01T00:48:50;14.30;95.00
21169;DHT22;10742;51.816;8.662;2023-04-01T00:52:15;14.30;95.00
21169;DHT22;10742;51.816;8.662;2023-04-01T00:55:42;14.30;94.90
21169;DHT22;10742;51.816;8.662;2023-04-01T00:59:08;14.30;95.00
21169;DHT22;10742;51.816;8.662;2023-04-01T01:02:32;14.30;95.00
21169;DHT22;10742;51.816;8.662;2023-04-01T01:06:19;14.30;95.00
21169;DHT22;10742;51.816;8.662;2023-04-01T01:13:53;14.30;95.00
21169;DHT22;10742;51.816;8.662;2023-04-01T01:17:38;14.30;94.90
21169;DHT22;10742;51.816;8.662;2023-04-01T01:25:18;14.30;94.90
21169;DHT22;10742;51.816;8.662;2023-04-01T01:33:12;14.30;94.90
21169;DHT22;10742;51.816;8.662;2023-04-01T01:36:35;14.30;94.90
21169;DHT22;10742;51.816;8.662;2023-04-01T01:40:05;14.30;94.80
21169;DHT22;10742;51.816;8.662;2023-04-01T01:43:39;14.20;94.70
21169;DHT22;10742;51.816;8.662;2023-04-01T01:47:01;14.20;94.70
21169;DHT22;10742;51.816;8.662;2023-04-01T01:50:24;14.20;94.80
21169;DHT22;10742;51.816;8.662;2023-04-01T01:53:47;14.20;94.80
21169;DHT22;10742;51.816;8.662;2023-04-01T01:57:10;14.20;94.80
21169;DHT22;10742;51.816;8.662;2023-04-01T02:00:36;14.20;94.80
21169;DHT22;10742;51.816;8.662;2023-04-01T02:03:58;14.20;94.80
21169;DHT22;10742;51.816;8.662;2023-04-01T02:07:28;14.20;94.80
21169;DHT22;10742;51.816;8.662;2023-04-01T02:11:13;14.20;94.90
21169;DHT22;10742;51.816;8.662;2023-04-01T02:15:03;14.20;95.10
21169;DHT22;10742;51.816;8.662;2023-04-01T02:18:22;14.20;95.00
21169;DHT22;10742;51.816;8.662;2023-04-01T02:21:44;14.20;94.90
21169;DHT22;10742;51.816;8.662;2023-04-01T02:25:12;14.20;95.00
21169;DHT22;10742;51.816;8.662;2023-04-01T02:28:34;14.20;95.10
21169;DHT22;10742;51.816;8.662;2023-04-01T02:31:58;14.20;95.00
21169;DHT22;10742;51.816;8.662;2023-04-01T02:35:19;14.20;95.00
21169;DHT22;10742;51.816;8.662;2023-04-01T02:38:42;14.20;95.00
21169;DHT22;10742;51.816;8.662;2023-04-01T02:42:04;14.10;94.90
21169;DHT22;10742;51.816;8.662;2023-04-01T02:45:26;14.10;95.00
21169;DHT22;10742;51.816;8.662;2023-04-01T02:48:47;14.10;95.00
21169;DHT22;10742;51.816;8.662;2023-04-01T02:52:08;14.10;95.00
21169;DHT22;10742;51.816;8.662;2023-04-01T02:55:29;14.10;95.00
21169;DHT22;10742;51.816;8.662;2023-04-01T02:58:53;14.10;95.00
21169;DHT22;10742;51.816;8.662;2023-04-01T03:02:15;14.10;94.90
21169;DHT22;10742;51.816;8.662;2023-04-01T03:05:36;14.10;94.90
21169;DHT22;10742;51.816;8.662;2023-04-01T03:08:57;14.10;94.90
21169;DHT22;10742;51.816;8.662;2023-04-01T03:12:19;14.10;95.00
21169;DHT22;10742;51.816;8.662;2023-04-01T03:15:44;14.10;95.00
21169;DHT22;10742;51.816;8.662;2023-04-01T03:19:05;14.10;94.90
21169;DHT22;10742;51.816;8.662;2023-04-01T03:22:26;14.10;94.90
21169;DHT22;10742;51.816;8.662;2023-04-01T03:25:47;14.10;95.00
21169;DHT22;10742;51.816;8.662;2023-04-01T03:29:09;14.10;95.00
21169;DHT22;10742;51.816;8.662;2023-04-01T03:32:31;14.10;95.00
21169;DHT22;10742;51.816;8.662;2023-04-01T03:35:53;14.10;95.10
21169;DHT22;10742;51.816;8.662;2023-04-01T03:39:14;14.10;95.10
21169;DHT22;10742;51.816;8.662;2023-04-01T03:42:39;14.10;95.10
21169;DHT22;10742;51.816;8.662;2023-04-01T03:46:00;14.10;95.10
21169;DHT22;10742;51.816;8.662;2023-04-01T03:49:22;14.10;95.10
21169;DHT22;10742;51.816;8.662;2023-04-01T03:52:42;14.00;95.10
21169;DHT22;10742;51.816;8.662;2023-04-01T03:56:07;14.10;95.10
21169;DHT22;10742;51.816;8.662;2023-04-01T03:59:29;14.00;95.20
21169;DHT22;10742;51.816;8.662;2023-04-01T04:02:51;14.00;95.10
21169;DHT22;10742;51.816;8.662;2023-04-01T04:06:19;14.00;95.10
21169;DHT22;10742;51.816;8.662;2023-04-01T04:09:41;14.00;95.20
21169;DHT22;10742;51.816;8.662;2023-04-01T04:13:03;14.00;95.20
21169;DHT22;10742;51.816;8.662;2023-04-01T04:16:28;13.90;95.20
21169;DHT22;10742;51.816;8.662;2023-04-01T04:19:55;13.90;95.30
21169;DHT22;10742;51.816;8.662;2023-04-01T04:23:17;14.00;95.30
21169;DHT22;10742;51.816;8.662;2023-04-01T04:26:39;13.90;95.30
21169;DHT22;10742;51.816;8.662;2023-04-01T04:30:00;13.90;95.30
21169;DHT22;10742;51.816;8.662;2023-04-01T04:33:23;13.90;95.30
21169;DHT22;10742;51.816;8.662;2023-04-01T04:36:45;13.90;95.40
21169;DHT22;10742;51.816;8.662;2023-04-01T04:40:07;13.90;95.40
21169;DHT22;10742;51.816;8.662;2023-04-01T04:43:29;13.90;95.40
21169;DHT22;10742;51.816;8.662;2023-04-01T04:46:50;13.90;95.40
21169;DHT22;10742;51.816;8.662;2023-04-01T04:50:12;13.90;95.50
21169;DHT22;10742;51.816;8.662;2023-04-01T04:53:34;13.90;95.50
21169;DHT22;10742;51.816;8.662;2023-04-01T04:56:55;13.90;95.60
21169;DHT22;10742;51.816;8.662;2023-04-01T05:00:21;13.90;95.60
21169;DHT22;10742;51.816;8.662;2023-04-01T05:03:51;13.90;95.60
21169;DHT22;10742;51.816;8.662;2023-04-01T05:07:13;13.90;95.60
21169;DHT22;10742;51.816;8.662;2023-04-01T05:10:34;13.90;95.70
21169;DHT22;10742;51.816;8.662;2023-04-01T05:13:56;13.90;95.70
21169;DHT22;10742;51.816;8.662;2023-04-01T05:17:17;13.90;95.70
21169;DHT22;10742;51.816;8.662;2023-04-01T05:20:38;13.90;95.70
21169;DHT22;10742;51.816;8.662;2023-04-01T05:24:00;13.90;95.80
21169;DHT22;10742;51.816;8.662;2023-04-01T05:27:23;13.90;95.80
21169;DHT22;10742;51.816;8.662;2023-04-01T05:30:45;13.90;95.80
21169;DHT22;10742;51.816;8.662;2023-04-01T05:34:16;13.80;95.80
21169;DHT22;10742;51.816;8.662;2023-04-01T05:37:37;13.90;95.90
21169;DHT22;10742;51.816;8.662;2023-04-01T05:41:00;13.90;95.90
21169;DHT22;10742;51.816;8.662;2023-04-01T05:44:22;13.90;95.90
21169;DHT22;10742;51.816;8.662;2023-04-01T05:47:55;13.90;95.80
21169;DHT22;10742;51.816;8.662;2023-04-01T05:51:16;13.90;95.80
21169;DHT22;10742;51.816;8.662;2023-04-01T05:54:38;14.00;95.80
21169;DHT22;10742;51.816;8.662;2023-04-01T05:57:59;14.00;95.90
21169;DHT22;10742;51.816;8.662;2023-04-01T06:01:21;14.00;95.90
21169;DHT22;10742;51.816;8.662;2023-04-01T06:04:43;14.00;95.90
21169;DHT22;10742;51.816;8.662;2023-04-01T06:08:17;14.00;95.90
21169;DHT22;10742;51.816;8.662;2023-04-01T06:19:09;14.00;96.00
21169;DHT22;10742;51.816;8.662;2023-04-01T06:26:37;14.00;96.20
21169;DHT22;10742;51.816;8.662;2023-04-01T06:37:59;14.00;96.30
21169;DHT22;10742;51.816;8.662;2023-04-01T06:45:54;14.10;96.50
21169;DHT22;10742;51.816;8.662;2023-04-01T06:50:04;14.10;96.60
21169;DHT22;10742;51.816;8.662;2023-04-01T06:54:01;14.20;96.70
21169;DHT22;10742;51.816;8.662;2023-04-01T06:57:45;14.30;96.70
21169;DHT22;10742;51.816;8.662;2023-04-01T07:01:12;14.30;96.60
21169;DHT22;10742;51.816;8.662;2023-04-01T07:04:40;14.40;96.50
21169;DHT22;10742;51.816;8.662;2023-04-01T07:08:08;14.40;96.50
21169;DHT22;10742;51.816;8.662;2023-04-01T07:11:34;14.50;96.40
21169;DHT22;10742;51.816;8.662;2023-04-01T07:15:27;14.60;96.40
21169;DHT22;10742;51.816;8.662;2023-04-01T07:18:54;14.60;96.40
21169;DHT22;10742;51.816;8.662;2023-04-01T07:22:48;14.70;96.40
21169;DHT22;10742;51.816;8.662;2023-04-01T07:26:44;14.70;96.40
21169;DHT22;10742;51.816;8.662;2023-04-01T07:30:17;14.80;96.10
21169;DHT22;10742;51.816;8.662;2023-04-01T07:33:56;14.80;96.20
21169;DHT22;10742;51.816;8.662;2023-04-01T07:41:40;14.80;96.30
21169;DHT22;10742;51.816;8.662;2023-04-01T07:45:01;14.80;96.30
21169;DHT22;10742;51.816;8.662;2023-04-01T07:52:14;14.90;96.30
21169;DHT22;10742;51.816;8.662;2023-04-01T07:55:51;14.90;96.30
21169;DHT22;10742;51.816;8.662;2023-04-01T08:06:26;15.00;96.40
21169;DHT22;10742;51.816;8.662;2023-04-01T08:10:20;15.00;96.30
21169;DHT22;10742;51.816;8.662;2023-04-01T08:18:29;15.10;96.40
21169;DHT22;10742;51.816;8.662;2023-04-01T08:21:54;15.10;96.50
21169;DHT22;10742;51.816;8.662;2023-04-01T08:25:27;15.20;96.50
21169;DHT22;10742;51.816;8.662;2023-04-01T08:29:00;15.20;96.40
21169;DHT22;10742;51.816;8.662;2023-04-01T08:32:39;15.20;96.50
21169;DHT22;10742;51.816;8.662;2023-04-01T08:36:08;15.30;96.40
21169;DHT22;10742;51.816;8.662;2023-04-01T08:39:37;15.30;96.40
21169;DHT22;10742;51.816;8.662;2023-04-01T08:46:54;15.30;96.20
21169;DHT22;10742;51.816;8.662;2023-04-01T08:54:17;15.40;96.20
21169;DHT22;10742;51.816;8.662;2023-04-01T08:57:54;15.40;96.30
21169;DHT22;10742;51.816;8.662;2023-04-01T09:01:57;15.40;96.30
21169;DHT22;10742;51.816;8.662;2023-04-01T09:06:11;15.40;96.40
21169;DHT22;10742;51.816;8.662;2023-04-01T09:24:30;15.60;96.20
21169;DHT22;10742;51.816;8.662;2023-04-01T09:28:15;15.60;96.30
21169;DHT22;10742;51.816;8.662;2023-04-01T09:32:04;15.60;96.30
21169;DHT22;10742;51.816;8.662;2023-04-01T09:35:47;15.70;96.50
21169;DHT22;10742;51.816;8.662;2023-04-01T09:54:49;16.00;96.60
21169;DHT22;10742;51.816;8.662;2023-04-01T10:36:54;16.30;96.20
21169;DHT22;10742;51.816;8.662;2023-04-01T10:40:53;16.30;96.00
21169;DHT22;10742;51.816;8.662;2023-04-01T10:44:53;16.40;96.10
21169;DHT22;10742;51.816;8.662;2023-04-01T10:52:36;16.50;96.10
21169;DHT22;10742;51.816;8.662;2023-04-01T10:56:38;16.50;96.00
21169;DHT22;10742;51.816;8.662;2023-04-01T11:00:30;16.50;96.00
21169;DHT22;10742;51.816;8.662;2023-04-01T11:13:24;16.60;96.00
21169;DHT22;10742;51.816;8.662;2023-04-01T11:24:45;16.60;95.90
21169;DHT22;10742;51.816;8.662;2023-04-01T11:39:59;16.50;96.10
21169;DHT22;10742;51.816;8.662;2023-04-01T11:59:52;16.90;96.30
21169;DHT22;10742;51.816;8.662;2023-04-01T12:03:30;17.00;96.10
21169;DHT22;10742;51.816;8.662;2023-04-01T12:07:17;17.10;95.80
21169;DHT22;10742;51.816;8.662;2023-04-01T12:10:56;17.10;95.80
21169;DHT22;10742;51.816;8.662;2023-04-01T12:14:39;17.10;95.60
21169;DHT22;10742;51.816;8.662;2023-04-01T12:18:28;17.10;95.70
21169;DHT22;10742;51.816;8.662;2023-04-01T12:29:44;17.00;95.60
21169;DHT22;10742;51.816;8.662;2023-04-01T12:33:27;16.90;95.70
21169;DHT22;10742;51.816;8.662;2023-04-01T12:37:12;16.90;95.60
21169;DHT22;10742;51.816;8.662;2023-04-01T12:41:03;16.90;95.70
21169;DHT22;10742;51.816;8.662;2023-04-01T12:44:38;16.90;95.70
21169;DHT22;10742;51.816;8.662;2023-04-01T12:52:03;16.90;95.80
21169;DHT22;10742;51.816;8.662;2023-04-01T12:55:35;17.00;95.70
21169;DHT22;10742;51.816;8.662;2023-04-01T12:59:22;16.90;95.70
21169;DHT22;10742;51.816;8.662;2023-04-01T13:03:17;16.90;95.60
21169;DHT22;10742;51.816;8.662;2023-04-01T13:06:51;16.90;95.80
21169;DHT22;10742;51.816;8.662;2023-04-01T13:24:31;16.90;95.40
21169;DHT22;10742;51.816;8.662;2023-04-01T13:32:00;16.80;95.50
21169;DHT22;10742;51.816;8.662;2023-04-01T13:35:28;16.80;95.40
21169;DHT22;10742;51.816;8.662;2023-04-01T13:43:37;16.70;95.60
21169;DHT22;10742;51.816;8.662;2023-04-01T13:51:02;16.60;95.70
21169;DHT22;10742;51.816;8.662;2023-04-01T14:02:19;16.60;96.20
21169;DHT22;10742;51.816;8.662;2023-04-01T14:06:05;16.70;96.30
21169;DHT22;10742;51.816;8.662;2023-04-01T14:24:27;16.80;96.10
21169;DHT22;10742;51.816;8.662;2023-04-01T14:28:38;16.80;96.10
21169;DHT22;10742;51.816;8.662;2023-04-01T14:31:59;16.80;96.00
21169;DHT22;10742;51.816;8.662;2023-04-01T14:35:38;16.80;96.10
21169;DHT22;10742;51.816;8.662;2023-04-01T14:39:18;16.80;96.00
21169;DHT22;10742;51.816;8.662;2023-04-01T14:46:57;16.80;96.10
21169;DHT22;10742;51.816;8.662;2023-04-01T14:50:24;16.80;96.10
21169;DHT22;10742;51.816;8.662;2023-04-01T14:54:09;16.80;96.00
21169;DHT22;10742;51.816;8.662;2023-04-01T14:57:33;16.80;96.00
21169;DHT22;10742;51.816;8.662;2023-04-01T15:08:29;16.80;95.90
21169;DHT22;10742;51.816;8.662;2023-04-01T15:22:46;16.80;96.10
21169;DHT22;10742;51.816;8.662;2023-04-01T15:26:32;16.70;96.10
21169;DHT22;10742;51.816;8.662;2023-04-01T15:30:02;16.80;96.20
21169;DHT22;10742;51.816;8.662;2023-04-01T15:43:50;16.70;96.20
21169;DHT22;10742;51.816;8.662;2023-04-01T15:47:39;16.70;96.20
21169;DHT22;10742;51.816;8.662;2023-04-01T15:51:23;16.70;96.30
21169;DHT22;10742;51.816;8.662;2023-04-01T15:55:00;16.60;96.30
21169;DHT22;10742;51.816;8.662;2023-04-01T15:58:46;16.60;96.40
21169;DHT22;10742;51.816;8.662;2023-04-01T16:02:23;16.60;96.40
21169;DHT22;10742;51.816;8.662;2023-04-01T16:09:38;16.60;96.10
21169;DHT22;10742;51.816;8.662;2023-04-01T16:13:22;16.50;95.90
21169;DHT22;10742;51.816;8.662;2023-04-01T16:17:11;16.50;95.90
21169;DHT22;10742;51.816;8.662;2023-04-01T16:21:00;16.50;96.00
21169;DHT22;10742;51.816;8.662;2023-04-01T16:24:47;16.40;96.00
21169;DHT22;10742;51.816;8.662;2023-04-01T16:35:39;16.30;96.30
21169;DHT22;10742;51.816;8.662;2023-04-01T16:39:27;16.30;96.30
21169;DHT22;10742;51.816;8.662;2023-04-01T16:42:52;16.30;96.30
21169;DHT22;10742;51.816;8.662;2023-04-01T16:50:41;16.30;96.40
21169;DHT22;10742;51.816;8.662;2023-04-01T16:53:43;16.30;96.40
21169;DHT22;10742;51.816;8.662;2023-04-01T17:00:51;16.30;96.30
21169;DHT22;10742;51.816;8.662;2023-04-01T17:04:47;16.30;96.40
21169;DHT22;10742;51.816;8.662;2023-04-01T17:08:36;16.30;96.40
21169;DHT22;10742;51.816;8.662;2023-04-01T17:12:17;16.20;96.30
21169;DHT22;10742;51.816;8.662;2023-04-01T17:20:04;16.20;96.10
21169;DHT22;10742;51.816;8.662;2023-04-01T17:23:34;16.10;96.20
21169;DHT22;10742;51.816;8.662;2023-04-01T17:30:31;15.90;96.20
21169;DHT22;10742;51.816;8.662;2023-04-01T17:37:25;15.70;96.40
21169;DHT22;10742;51.816;8.662;2023-04-01T17:40:34;15.60;96.40
21169;DHT22;10742;51.816;8.662;2023-04-01T17:50:42;15.40;97.00
21169;DHT22;10742;51.816;8.662;2023-04-01T17:53:50;15.40;96.70
21169;DHT22;10742;51.816;8.662;2023-04-01T17:57:09;15.30;96.50
21169;DHT22;10742;51.816;8.662;2023-04-01T18:00:51;15.30;96.70
21169;DHT22;10742;51.816;8.662;2023-04-01T18:08:14;15.20;96.60
21169;DHT22;10742;51.816;8.662;2023-04-01T18:12:04;15.20;96.70
21169;DHT22;10742;51.816;8.662;2023-04-01T18:18:43;15.20;96.60
21169;DHT22;10742;51.816;8.662;2023-04-01T18:21:51;15.10;96.70
21169;DHT22;10742;51.816;8.662;2023-04-01T18:31:20;15.00;96.60
21169;DHT22;10742;51.816;8.662;2023-04-01T18:35:44;14.90;96.60
21169;DHT22;10742;51.816;8.662;2023-04-01T18:38:28;14.80;96.70
21169;DHT22;10742;51.816;8.662;2023-04-01T18:41:56;14.80;96.50
21169;DHT22;10742;51.816;8.662;2023-04-01T18:45:37;14.60;96.60
21169;DHT22;10742;51.816;8.662;2023-04-01T18:49:13;14.50;96.70
21169;DHT22;10742;51.816;8.662;2023-04-01T18:52:27;14.30;96.80
21169;DHT22;10742;51.816;8.662;2023-04-01T18:59:04;14.10;96.90
21169;DHT22;10742;51.816;8.662;2023-04-01T19:02:31;14.00;97.10
21169;DHT22;10742;51.816;8.662;2023-04-01T19:05:46;14.00;97.20
21169;DHT22;10742;51.816;8.662;2023-04-01T19:08:51;14.00;97.00
21169;DHT22;10742;51.816;8.662;2023-04-01T19:12:07;13.90;96.90
21169;DHT22;10742;51.816;8.662;2023-04-01T19:26:15;13.50;96.90
21169;DHT22;10742;51.816;8.662;2023-04-01T19:33:15;13.30;97.00
21169;DHT22;10742;51.816;8.662;2023-04-01T19:39:50;13.10;97.20
21169;DHT22;10742;51.816;8.662;2023-04-01T19:46:36;13.00;97.20
21169;DHT22;10742;51.816;8.662;2023-04-01T19:50:14;13.00;97.40
21169;DHT22;10742;51.816;8.662;2023-04-01T19:57:00;12.90;97.20
21169;DHT22;10742;51.816;8.662;2023-04-01T20:07:04;12.70;97.20
21169;DHT22;10742;51.816;8.662;2023-04-01T20:10:10;12.70;97.30
21169;DHT22;10742;51.816;8.662;2023-04-01T20:16:21;12.70;97.30
21169;DHT22;10742;51.816;8.662;2023-04-01T20:19:42;12.60;97.70
21169;DHT22;10742;51.816;8.662;2023-04-01T20:26:09;12.60;97.10
21169;DHT22;10742;51.816;8.662;2023-04-01T20:32:54;12.50;97.10
21169;DHT22;10742;51.816;8.662;2023-04-01T20:36:16;12.50;97.20
21169;DHT22;10742;51.816;8.662;2023-04-01T20:43:08;12.40;97.20
21169;DHT22;10742;51.816;8.662;2023-04-01T20:46:20;12.40;97.20
21169;DHT22;10742;51.816;8.662;2023-04-01T20:49:34;12.30;97.20
21169;DHT22;10742;51.816;8.662;2023-04-01T20:52:56;12.30;97.20
21169;DHT22;10742;51.816;8.662;2023-04-01T20:56:17;12.20;97.10
21169;DHT22;10742;51.816;8.662;2023-04-01T21:03:18;12.10;97.00
21169;DHT22;10742;51.816;8.662;2023-04-01T21:06:41;11.90;97.00
21169;DHT22;10742;51.816;8.662;2023-04-01T21:13:10;11.70;97.10
21169;DHT22;10742;51.816;8.662;2023-04-01T21:23:39;11.50;97.30
21169;DHT22;10742;51.816;8.662;2023-04-01T21:27:00;11.50;97.40
21169;DHT22;10742;51.816;8.662;2023-04-01T21:37:12;11.30;97.40
21169;DHT22;10742;51.816;8.662;2023-04-01T21:44:52;11.30;97.30
21169;DHT22;10742;51.816;8.662;2023-04-01T21:55:01;11.10;97.30
21169;DHT22;10742;51.816;8.662;2023-04-01T22:08:27;11.00;97.30
21169;DHT22;10742;51.816;8.662;2023-04-01T22:11:47;11.00;97.50
21169;DHT22;10742;51.816;8.662;2023-04-01T22:18:33;10.90;97.40
21169;DHT22;10742;51.816;8.662;2023-04-01T22:25:14;10.90;97.20
21169;DHT22;10742;51.816;8.662;2023-04-01T22:28:26;10.80;97.20
21169;DHT22;10742;51.816;8.662;2023-04-01T22:31:47;10.80;97.30
21169;DHT22;10742;51.816;8.662;2023-04-01T22:35:22;10.70;97.30
21169;DHT22;10742;51.816;8.662;2023-04-01T22:38:43;10.60;97.30
21169;DHT22;10742;51.816;8.662;2023-04-01T22:42:25;10.60;97.40
21169;DHT22;10742;51.816;8.662;2023-04-01T22:46:03;10.60;97.40
21169;DHT22;10742;51.816;8.662;2023-04-01T22:49:23;10.50;97.30
21169;DHT22;10742;51.816;8.662;2023-04-01T22:52:38;10.50;97.20
21169;DHT22;10742;51.816;8.662;2023-04-01T22:55:44;10.40;97.20
21169;DHT22;10742;51.816;8.662;2023-04-01T22:59:22;10.40;97.30
21169;DHT22;10742;51.816;8.662;2023-04-01T23:02:29;10.30;97.20
21169;DHT22;10742;51.816;8.662;2023-04-01T23:05:36;10.20;97.20
21169;DHT22;10742;51.816;8.662;2023-04-01T23:12:16;10.10;97.30
21169;DHT22;10742;51.816;8.662;2023-04-01T23:15:20;10.10;97.30
21169;DHT22;10742;51.816;8.662;2023-04-01T23:18:36;10.00;97.20
21169;DHT22;10742;51.816;8.662;2023-04-01T23:21:49;9.90;97.30
21169;DHT22;10742;51.816;8.662;2023-04-01T23:25:17;9.90;97.40
21169;DHT22;10742;51.816;8.662;2023-04-01T23:28:45;9.90;97.30
21169;DHT22;10742;51.816;8.662;2023-04-01T23:31:59;9.80;97.40
21169;DHT22;10742;51.816;8.662;2023-04-01T23:35:02;9.80;97.50
21169;DHT22;10742;51.816;8.662;2023-04-01T23:38:04;9.80;97.40
21169;DHT22;10742;51.816;8.662;2023-04-01T23:41:19;9.70;97.40
21169;DHT22;10742;51.816;8.662;2023-04-01T23:44:24;9.70;97.40
21169;DHT22;10742;51.816;8.662;2023-04-01T23:47:33;9.60;97.40
21169;DHT22;10742;51.816;8.662;2023-04-01T23:50:36;9.60;97.40
21169;DHT22;10742;51.816;8.662;2023-04-01T23:53:44;9.60;97.40
21169;DHT22;10742;51.816;8.662;2023-04-01T23:56:53;9.60;97.40
